sensor_id;sensor_type;location;lat;lon;timestamp;temperature;humidity
74968;SHT30;63523;51.880;12.630;2024-02-16T00:00:07;9.93;84.16
74968;SHT30;63523;51.880;12.630;2024-02-16T00:02:33;9.90;84.37
74968;SHT30;63523;51.880;12.630;2024-02-16T00:04:58;9.88;84.19
74968;SHT30;63523;51.880;12.630;2024-02-16T00:07:24;9.90;84.31
74968;SHT30;63523;51.880;12.630;2024-02-16T00:09:49;9.90;84.21
74968;SHT30;63523;51.880;12.630;2024-02-16T00:12:15;9.94;83.33
74968;SHT30;63523;51.880;12.630;2024-02-16T00:14:41;9.88;83.73
74968;SHT30;63523;51.880;12.630;2024-02-16T00:17:06;9.84;83.80
74968;SHT30;63523;51.880;12.630;2024-02-16T00:19:32;9.84;84.02
74968;SHT30;63523;51.880;12.630;2024-02-16T00:21:57;9.80;83.95
74968;SHT30;63523;51.880;12.630;2024-02-16T00:24:22;9.83;84.11
74968;SHT30;63523;51.880;12.630;2024-02-16T00:26:48;9.83;83.97
74968;SHT30;63523;51.880;12.630;2024-02-16T00:29:13;9.80;84.04
74968;SHT30;63523;51.880;12.630;2024-02-16T00:31:38;9.78;84.10
74968;SHT30;63523;51.880;12.630;2024-02-16T00:34:04;9.77;84.02
74968;SHT30;63523;51.880;12.630;2024-02-16T00:36:29;9.77;84.03
74968;SHT30;63523;51.880;12.630;2024-02-16T00:38:56;9.78;83.94
74968;SHT30;63523;51.880;12.630;2024-02-16T00:41:22;9.73;84.07
74968;SHT30;63523;51.880;12.630;2024-02-16T00:43:47;9.77;84.04
74968;SHT30;63523;51.880;12.630;2024-02-16T00:46:13;9.78;83.97
74968;SHT30;63523;51.880;12.630;2024-02-16T00:48:38;9.80;83.94
74968;SHT30;63523;51.880;12.630;2024-02-16T00:51:03;9.81;83.70
74968;SHT30;63523;51.880;12.630;2024-02-16T00:53:28;9.78;83.57
74968;SHT30;63523;51.880;12.630;2024-02-16T00:55:54;9.76;83.59
74968;SHT30;63523;51.880;12.630;2024-02-16T00:58:19;9.73;83.56
74968;SHT30;63523;51.880;12.630;2024-02-16T01:00:45;9.69;83.53
74968;SHT30;63523;51.880;12.630;2024-02-16T01:03:10;9.66;83.50
74968;SHT30;63523;51.880;12.630;2024-02-16T01:05:35;9.64;83.63
74968;SHT30;63523;51.880;12.630;2024-02-16T01:08:00;9.67;83.76
74968;SHT30;63523;51.880;12.630;2024-02-16T01:10:26;9.69;83.67
74968;SHT30;63523;51.880;12.630;2024-02-16T01:12:51;9.67;83.56
74968;SHT30;63523;51.880;12.630;2024-02-16T01:15:18;9.66;83.59
74968;SHT30;63523;51.880;12.630;2024-02-16T01:17:43;9.73;83.41
74968;SHT30;63523;51.880;12.630;2024-02-16T01:20:08;9.76;83.20
74968;SHT30;63523;51.880;12.630;2024-02-16T01:22:37;9.74;83.11
74968;SHT30;63523;51.880;12.630;2024-02-16T01:25:03;9.73;83.11
74968;SHT30;63523;51.880;12.630;2024-02-16T01:27:28;9.73;83.17
74968;SHT30;63523;51.880;12.630;2024-02-16T01:29:54;9.76;83.05
74968;SHT30;63523;51.880;12.630;2024-02-16T01:32:19;9.80;82.78
74968;SHT30;63523;51.880;12.630;2024-02-16T01:34:44;9.76;82.75
74968;SHT30;63523;51.880;12.630;2024-02-16T01:37:12;9.74;82.82
74968;SHT30;63523;51.880;12.630;2024-02-16T01:39:37;9.74;83.03
74968;SHT30;63523;51.880;12.630;2024-02-16T01:42:02;9.71;82.97
74968;SHT30;63523;51.880;12.630;2024-02-16T01:44:28;9.70;82.96
74968;SHT30;63523;51.880;12.630;2024-02-16T01:46:53;9.64;83.24
74968;SHT30;63523;51.880;12.630;2024-02-16T01:49:18;9.61;83.43
74968;SHT30;63523;51.880;12.630;2024-02-16T01:51:44;9.57;83.46
74968;SHT30;63523;51.880;12.630;2024-02-16T01:54:12;9.59;83.59
74968;SHT30;63523;51.880;12.630;2024-02-16T01:56:37;9.59;83.36
74968;SHT30;63523;51.880;12.630;2024-02-16T01:59:03;9.56;83.38
74968;SHT30;63523;51.880;12.630;2024-02-16T02:01:28;9.56;83.54
74968;SHT30;63523;51.880;12.630;2024-02-16T02:03:53;9.64;83.16
74968;SHT30;63523;51.880;12.630;2024-02-16T02:06:18;9.63;83.18
74968;SHT30;63523;51.880;12.630;2024-02-16T02:08:44;9.59;83.23
74968;SHT30;63523;51.880;12.630;2024-02-16T02:11:09;9.57;83.39
74968;SHT30;63523;51.880;12.630;2024-02-16T02:13:34;9.60;83.11
74968;SHT30;63523;51.880;12.630;2024-02-16T02:16:00;9.54;83.20
74968;SHT30;63523;51.880;12.630;2024-02-16T02:18:28;9.61;83.27
74968;SHT30;63523;51.880;12.630;2024-02-16T02:20:53;9.59;82.99
74968;SHT30;63523;51.880;12.630;2024-02-16T02:23:19;9.59;83.23
74968;SHT30;63523;51.880;12.630;2024-02-16T02:25:44;9.54;83.22
74968;SHT30;63523;51.880;12.630;2024-02-16T02:28:10;9.56;83.23
74968;SHT30;63523;51.880;12.630;2024-02-16T02:30:35;9.57;82.83
74968;SHT30;63523;51.880;12.630;2024-02-16T02:33:00;9.53;82.88
74968;SHT30;63523;51.880;12.630;2024-02-16T02:35:26;9.46;82.94
74968;SHT30;63523;51.880;12.630;2024-02-16T02:37:51;9.39;83.33
74968;SHT30;63523;51.880;12.630;2024-02-16T02:40:16;9.39;83.28
74968;SHT30;63523;51.880;12.630;2024-02-16T02:42:42;9.31;83.02
74968;SHT30;63523;51.880;12.630;2024-02-16T02:45:08;9.28;83.54
74968;SHT30;63523;51.880;12.630;2024-02-16T02:47:33;9.26;83.59
74968;SHT30;63523;51.880;12.630;2024-02-16T02:49:58;9.22;83.71
74968;SHT30;63523;51.880;12.630;2024-02-16T02:52:24;9.15;83.79
74968;SHT30;63523;51.880;12.630;2024-02-16T02:54:49;9.12;84.01
74968;SHT30;63523;51.880;12.630;2024-02-16T02:57:14;9.08;84.07
74968;SHT30;63523;51.880;12.630;2024-02-16T02:59:40;9.05;84.14
74968;SHT30;63523;51.880;12.630;2024-02-16T03:02:05;9.04;84.29
74968;SHT30;63523;51.880;12.630;2024-02-16T03:04:30;9.00;84.27
74968;SHT30;63523;51.880;12.630;2024-02-16T03:06:55;8.98;84.34
74968;SHT30;63523;51.880;12.630;2024-02-16T03:09:21;9.12;84.10
74968;SHT30;63523;51.880;12.630;2024-02-16T03:11:47;9.10;83.96
74968;SHT30;63523;51.880;12.630;2024-02-16T03:14:13;9.11;83.94
74968;SHT30;63523;51.880;12.630;2024-02-16T03:16:38;9.08;83.84
74968;SHT30;63523;51.880;12.630;2024-02-16T03:19:06;9.04;83.80
74968;SHT30;63523;51.880;12.630;2024-02-16T03:21:31;9.05;83.99
74968;SHT30;63523;51.880;12.630;2024-02-16T03:23:57;9.05;83.66
74968;SHT30;63523;51.880;12.630;2024-02-16T03:26:23;9.01;83.86
74968;SHT30;63523;51.880;12.630;2024-02-16T03:28:48;9.03;83.93
74968;SHT30;63523;51.880;12.630;2024-02-16T03:31:21;9.08;83.79
74968;SHT30;63523;51.880;12.630;2024-02-16T03:33:47;9.08;83.88
74968;SHT30;63523;51.880;12.630;2024-02-16T03:36:14;9.12;83.90
74968;SHT30;63523;51.880;12.630;2024-02-16T03:38:46;9.14;83.70
74968;SHT30;63523;51.880;12.630;2024-02-16T03:41:18;9.16;83.82
74968;SHT30;63523;51.880;12.630;2024-02-16T03:43:44;9.19;83.82
74968;SHT30;63523;51.880;12.630;2024-02-16T03:46:10;9.19;83.83
74968;SHT30;63523;51.880;12.630;2024-02-16T03:48:35;9.26;83.62
74968;SHT30;63523;51.880;12.630;2024-02-16T03:51:00;9.31;83.48
74968;SHT30;63523;51.880;12.630;2024-02-16T03:53:28;9.31;83.31
74968;SHT30;63523;51.880;12.630;2024-02-16T03:55:53;9.32;83.33
74968;SHT30;63523;51.880;12.630;2024-02-16T03:58:19;9.32;83.33
74968;SHT30;63523;51.880;12.630;2024-02-16T04:00:44;9.35;83.25
74968;SHT30;63523;51.880;12.630;2024-02-16T04:03:09;9.40;83.17
74968;SHT30;63523;51.880;12.630;2024-02-16T04:05:38;9.39;83.02
74968;SHT30;63523;51.880;12.630;2024-02-16T04:08:03;9.43;83.00
74968;SHT30;63523;51.880;12.630;2024-02-16T04:10:29;9.42;82.94
74968;SHT30;63523;51.880;12.630;2024-02-16T04:12:54;9.43;82.78
74968;SHT30;63523;51.880;12.630;2024-02-16T04:15:19;9.43;82.65
74968;SHT30;63523;51.880;12.630;2024-02-16T04:17:45;9.47;82.79
74968;SHT30;63523;51.880;12.630;2024-02-16T04:20:10;9.56;82.41
74968;SHT30;63523;51.880;12.630;2024-02-16T04:22:36;9.57;82.01
74968;SHT30;63523;51.880;12.630;2024-02-16T04:25:03;9.61;82.04
74968;SHT30;63523;51.880;12.630;2024-02-16T04:27:29;9.61;81.46
74968;SHT30;63523;51.880;12.630;2024-02-16T04:29:54;9.57;81.96
74968;SHT30;63523;51.880;12.630;2024-02-16T04:32:19;9.57;81.99
74968;SHT30;63523;51.880;12.630;2024-02-16T04:34:44;9.52;82.08
74968;SHT30;63523;51.880;12.630;2024-02-16T04:37:12;9.52;82.18
74968;SHT30;63523;51.880;12.630;2024-02-16T04:39:37;9.46;82.38
74968;SHT30;63523;51.880;12.630;2024-02-16T04:42:03;9.47;82.18
74968;SHT30;63523;51.880;12.630;2024-02-16T04:44:28;9.47;82.26
74968;SHT30;63523;51.880;12.630;2024-02-16T04:46:54;9.44;82.23
74968;SHT30;63523;51.880;12.630;2024-02-16T04:49:19;9.46;82.01
74968;SHT30;63523;51.880;12.630;2024-02-16T04:51:44;9.42;82.33
74968;SHT30;63523;51.880;12.630;2024-02-16T04:54:10;9.49;82.20
74968;SHT30;63523;51.880;12.630;2024-02-16T04:56:36;9.40;82.14
74968;SHT30;63523;51.880;12.630;2024-02-16T04:59:01;9.38;82.45
74968;SHT30;63523;51.880;12.630;2024-02-16T05:01:27;9.38;82.42
74968;SHT30;63523;51.880;12.630;2024-02-16T05:03:53;9.35;82.42
74968;SHT30;63523;51.880;12.630;2024-02-16T05:06:19;9.32;82.65
74968;SHT30;63523;51.880;12.630;2024-02-16T05:08:44;9.32;82.72
74968;SHT30;63523;51.880;12.630;2024-02-16T05:11:09;9.29;82.60
74968;SHT30;63523;51.880;12.630;2024-02-16T05:13:35;9.38;82.57
74968;SHT30;63523;51.880;12.630;2024-02-16T05:16:01;9.49;82.02
74968;SHT30;63523;51.880;12.630;2024-02-16T05:18:26;9.49;81.97
74968;SHT30;63523;51.880;12.630;2024-02-16T05:20:52;9.46;81.78
74968;SHT30;63523;51.880;12.630;2024-02-16T05:23:17;9.43;82.15
74968;SHT30;63523;51.880;12.630;2024-02-16T05:25:43;9.40;82.27
74968;SHT30;63523;51.880;12.630;2024-02-16T05:28:08;9.39;82.44
74968;SHT30;63523;51.880;12.630;2024-02-16T05:30:34;9.44;82.23
74968;SHT30;63523;51.880;12.630;2024-02-16T05:32:59;9.49;82.27
74968;SHT30;63523;51.880;12.630;2024-02-16T05:35:24;9.52;82.16
74968;SHT30;63523;51.880;12.630;2024-02-16T05:37:54;9.50;81.66
74968;SHT30;63523;51.880;12.630;2024-02-16T05:40:20;9.44;81.65
74968;SHT30;63523;51.880;12.630;2024-02-16T05:42:57;9.36;82.16
74968;SHT30;63523;51.880;12.630;2024-02-16T05:45:23;9.35;82.67
74968;SHT30;63523;51.880;12.630;2024-02-16T05:47:49;9.31;82.72
74968;SHT30;63523;51.880;12.630;2024-02-16T05:50:15;9.35;83.00
74968;SHT30;63523;51.880;12.630;2024-02-16T05:52:40;9.33;82.87
74968;SHT30;63523;51.880;12.630;2024-02-16T05:55:07;9.44;82.36
74968;SHT30;63523;51.880;12.630;2024-02-16T05:57:33;9.47;81.88
74968;SHT30;63523;51.880;12.630;2024-02-16T05:59:58;9.49;82.01
74968;SHT30;63523;51.880;12.630;2024-02-16T06:02:24;9.47;82.09
74968;SHT30;63523;51.880;12.630;2024-02-16T06:04:53;9.54;81.82
74968;SHT30;63523;51.880;12.630;2024-02-16T06:07:18;9.54;81.77
74968;SHT30;63523;51.880;12.630;2024-02-16T06:09:43;9.53;81.73
74968;SHT30;63523;51.880;12.630;2024-02-16T06:12:08;9.59;81.60
74968;SHT30;63523;51.880;12.630;2024-02-16T06:14:35;9.56;81.94
74968;SHT30;63523;51.880;12.630;2024-02-16T06:17:16;9.53;81.54
74968;SHT30;63523;51.880;12.630;2024-02-16T06:19:42;9.43;82.08
74968;SHT30;63523;51.880;12.630;2024-02-16T06:22:08;9.49;82.28
74968;SHT30;63523;51.880;12.630;2024-02-16T06:24:34;9.46;81.93
74968;SHT30;63523;51.880;12.630;2024-02-16T06:26:59;9.44;82.08
74968;SHT30;63523;51.880;12.630;2024-02-16T06:29:24;9.39;82.46
74968;SHT30;63523;51.880;12.630;2024-02-16T06:31:49;9.38;82.53
74968;SHT30;63523;51.880;12.630;2024-02-16T06:34:17;9.38;82.44
74968;SHT30;63523;51.880;12.630;2024-02-16T06:36:42;9.50;82.69
74968;SHT30;63523;51.880;12.630;2024-02-16T06:39:08;9.53;82.17
74968;SHT30;63523;51.880;12.630;2024-02-16T06:41:35;9.54;82.20
74968;SHT30;63523;51.880;12.630;2024-02-16T06:44:00;9.64;82.18
74968;SHT30;63523;51.880;12.630;2024-02-16T06:46:26;9.77;81.11
74968;SHT30;63523;51.880;12.630;2024-02-16T06:48:52;9.77;81.65
74968;SHT30;63523;51.880;12.630;2024-02-16T06:51:21;9.76;81.71
74968;SHT30;63523;51.880;12.630;2024-02-16T06:53:47;9.78;81.89
74968;SHT30;63523;51.880;12.630;2024-02-16T06:56:12;9.80;81.90
74968;SHT30;63523;51.880;12.630;2024-02-16T06:58:37;9.93;81.39
74968;SHT30;63523;51.880;12.630;2024-02-16T07:01:03;9.94;80.94
74968;SHT30;63523;51.880;12.630;2024-02-16T07:03:29;9.98;80.90
74968;SHT30;63523;51.880;12.630;2024-02-16T07:05:54;10.09;80.88
74968;SHT30;63523;51.880;12.630;2024-02-16T07:08:19;10.11;80.39
74968;SHT30;63523;51.880;12.630;2024-02-16T07:10:45;10.14;80.86
74968;SHT30;63523;51.880;12.630;2024-02-16T07:13:12;10.14;80.79
74968;SHT30;63523;51.880;12.630;2024-02-16T07:15:37;10.16;80.63
74968;SHT30;63523;51.880;12.630;2024-02-16T07:18:02;10.24;80.66
74968;SHT30;63523;51.880;12.630;2024-02-16T07:20:29;10.35;80.32
74968;SHT30;63523;51.880;12.630;2024-02-16T07:22:54;10.35;80.03
74968;SHT30;63523;51.880;12.630;2024-02-16T07:25:19;10.42;80.26
74968;SHT30;63523;51.880;12.630;2024-02-16T07:27:44;10.46;80.11
74968;SHT30;63523;51.880;12.630;2024-02-16T07:30:10;10.52;79.85
74968;SHT30;63523;51.880;12.630;2024-02-16T07:32:38;10.53;79.89
74968;SHT30;63523;51.880;12.630;2024-02-16T07:35:04;10.55;80.12
74968;SHT30;63523;51.880;12.630;2024-02-16T07:37:29;10.60;80.28
74968;SHT30;63523;51.880;12.630;2024-02-16T07:39:55;10.73;79.97
74968;SHT30;63523;51.880;12.630;2024-02-16T07:42:20;10.84;79.47
74968;SHT30;63523;51.880;12.630;2024-02-16T07:44:45;11.11;78.52
74968;SHT30;63523;51.880;12.630;2024-02-16T07:47:11;11.26;78.02
74968;SHT30;63523;51.880;12.630;2024-02-16T07:49:38;11.49;77.36
74968;SHT30;63523;51.880;12.630;2024-02-16T07:52:05;11.56;77.07
74968;SHT30;63523;51.880;12.630;2024-02-16T07:54:30;11.69;76.80
74968;SHT30;63523;51.880;12.630;2024-02-16T07:56:55;11.66;77.04
74968;SHT30;63523;51.880;12.630;2024-02-16T07:59:20;11.67;76.79
74968;SHT30;63523;51.880;12.630;2024-02-16T08:01:47;11.80;76.94
74968;SHT30;63523;51.880;12.630;2024-02-16T08:04:12;11.90;76.81
74968;SHT30;63523;51.880;12.630;2024-02-16T08:06:37;11.97;76.14
74968;SHT30;63523;51.880;12.630;2024-02-16T08:09:03;11.91;77.10
74968;SHT30;63523;51.880;12.630;2024-02-16T08:11:29;11.93;76.35
74968;SHT30;63523;51.880;12.630;2024-02-16T08:13:54;11.97;76.43
74968;SHT30;63523;51.880;12.630;2024-02-16T08:16:21;11.98;76.25
74968;SHT30;63523;51.880;12.630;2024-02-16T08:18:46;12.01;76.33
74968;SHT30;63523;51.880;12.630;2024-02-16T08:21:11;12.06;76.52
74968;SHT30;63523;51.880;12.630;2024-02-16T08:23:37;12.26;76.23
74968;SHT30;63523;51.880;12.630;2024-02-16T08:26:03;12.39;75.81
74968;SHT30;63523;51.880;12.630;2024-02-16T08:28:28;12.56;75.18
74968;SHT30;63523;51.880;12.630;2024-02-16T08:30:54;12.59;74.89
74968;SHT30;63523;51.880;12.630;2024-02-16T08:33:19;12.76;74.01
74968;SHT30;63523;51.880;12.630;2024-02-16T08:35:44;12.79;74.28
74968;SHT30;63523;51.880;12.630;2024-02-16T08:38:10;12.93;74.11
74968;SHT30;63523;51.880;12.630;2024-02-16T08:40:37;13.04;73.89
74968;SHT30;63523;51.880;12.630;2024-02-16T08:43:03;13.18;73.72
74968;SHT30;63523;51.880;12.630;2024-02-16T08:45:30;13.23;73.30
74968;SHT30;63523;51.880;12.630;2024-02-16T08:47:55;13.43;72.27
74968;SHT30;63523;51.880;12.630;2024-02-16T08:50:22;13.45;73.05
74968;SHT30;63523;51.880;12.630;2024-02-16T08:52:47;13.56;72.14
74968;SHT30;63523;51.880;12.630;2024-02-16T08:55:12;13.66;71.97
74968;SHT30;63523;51.880;12.630;2024-02-16T08:57:38;13.76;72.11
74968;SHT30;63523;51.880;12.630;2024-02-16T09:00:03;13.83;71.73
74968;SHT30;63523;51.880;12.630;2024-02-16T09:02:29;13.88;71.93
74968;SHT30;63523;51.880;12.630;2024-02-16T09:04:54;13.95;70.66
74968;SHT30;63523;51.880;12.630;2024-02-16T09:07:19;14.05;70.33
74968;SHT30;63523;51.880;12.630;2024-02-16T09:09:45;14.03;69.03
74968;SHT30;63523;51.880;12.630;2024-02-16T09:12:11;14.12;69.45
74968;SHT30;63523;51.880;12.630;2024-02-16T09:14:36;14.14;69.02
74968;SHT30;63523;51.880;12.630;2024-02-16T09:17:02;14.25;69.03
74968;SHT30;63523;51.880;12.630;2024-02-16T09:19:27;14.40;69.58
74968;SHT30;63523;51.880;12.630;2024-02-16T09:21:52;14.56;69.54
74968;SHT30;63523;51.880;12.630;2024-02-16T09:24:19;14.88;67.96
74968;SHT30;63523;51.880;12.630;2024-02-16T09:26:45;15.08;67.13
74968;SHT30;63523;51.880;12.630;2024-02-16T09:29:12;15.15;66.29
74968;SHT30;63523;51.880;12.630;2024-02-16T09:31:38;15.28;65.85
74968;SHT30;63523;51.880;12.630;2024-02-16T09:34:05;15.28;65.42
74968;SHT30;63523;51.880;12.630;2024-02-16T09:36:30;15.42;65.22
74968;SHT30;63523;51.880;12.630;2024-02-16T09:38:55;15.35;65.59
74968;SHT30;63523;51.880;12.630;2024-02-16T09:41:20;15.28;66.69
74968;SHT30;63523;51.880;12.630;2024-02-16T09:43:46;15.32;66.69
74968;SHT30;63523;51.880;12.630;2024-02-16T09:46:11;15.39;66.60
74968;SHT30;63523;51.880;12.630;2024-02-16T09:48:39;15.57;65.35
74968;SHT30;63523;51.880;12.630;2024-02-16T09:51:04;15.62;66.10
74968;SHT30;63523;51.880;12.630;2024-02-16T09:53:30;15.65;64.93
74968;SHT30;63523;51.880;12.630;2024-02-16T09:55:55;15.56;64.78
74968;SHT30;63523;51.880;12.630;2024-02-16T09:58:21;15.67;64.44
74968;SHT30;63523;51.880;12.630;2024-02-16T10:00:54;15.77;64.44
74968;SHT30;63523;51.880;12.630;2024-02-16T10:03:28;15.84;64.68
74968;SHT30;63523;51.880;12.630;2024-02-16T10:06:07;15.87;64.15
74968;SHT30;63523;51.880;12.630;2024-02-16T10:08:33;15.90;64.77
74968;SHT30;63523;51.880;12.630;2024-02-16T10:11:03;15.91;64.28
74968;SHT30;63523;51.880;12.630;2024-02-16T10:13:29;15.90;65.25
74968;SHT30;63523;51.880;12.630;2024-02-16T10:16:04;15.84;64.77
74968;SHT30;63523;51.880;12.630;2024-02-16T10:18:31;15.93;65.48
74968;SHT30;63523;51.880;12.630;2024-02-16T10:20:56;15.90;64.18
74968;SHT30;63523;51.880;12.630;2024-02-16T10:23:22;15.94;64.79
74968;SHT30;63523;51.880;12.630;2024-02-16T10:25:47;16.22;63.94
74968;SHT30;63523;51.880;12.630;2024-02-16T10:28:12;16.21;65.47
74968;SHT30;63523;51.880;12.630;2024-02-16T10:30:40;16.22;66.01
74968;SHT30;63523;51.880;12.630;2024-02-16T10:33:08;16.17;64.45
74968;SHT30;63523;51.880;12.630;2024-02-16T10:35:35;16.11;64.33
74968;SHT30;63523;51.880;12.630;2024-02-16T10:38:04;16.12;66.14
74968;SHT30;63523;51.880;12.630;2024-02-16T10:40:37;16.48;64.08
74968;SHT30;63523;51.880;12.630;2024-02-16T10:43:07;16.51;64.83
74968;SHT30;63523;51.880;12.630;2024-02-16T10:45:34;16.48;64.76
74968;SHT30;63523;51.880;12.630;2024-02-16T10:48:02;16.56;64.80
74968;SHT30;63523;51.880;12.630;2024-02-16T10:50:27;16.65;63.72
74968;SHT30;63523;51.880;12.630;2024-02-16T10:52:55;16.53;64.56
74968;SHT30;63523;51.880;12.630;2024-02-16T10:55:22;16.46;63.53
74968;SHT30;63523;51.880;12.630;2024-02-16T10:57:49;16.25;62.35
74968;SHT30;63523;51.880;12.630;2024-02-16T11:00:15;16.30;63.85
74968;SHT30;63523;51.880;12.630;2024-02-16T11:02:58;16.36;62.74
74968;SHT30;63523;51.880;12.630;2024-02-16T11:05:34;16.18;63.33
74968;SHT30;63523;51.880;12.630;2024-02-16T11:08:01;16.15;63.82
74968;SHT30;63523;51.880;12.630;2024-02-16T11:10:27;16.14;64.13
74968;SHT30;63523;51.880;12.630;2024-02-16T11:12:53;16.12;64.44
74968;SHT30;63523;51.880;12.630;2024-02-16T11:15:30;16.25;63.15
74968;SHT30;63523;51.880;12.630;2024-02-16T11:17:57;16.44;62.07
74968;SHT30;63523;51.880;12.630;2024-02-16T11:20:25;16.51;63.04
74968;SHT30;63523;51.880;12.630;2024-02-16T11:22:51;16.62;62.46
74968;SHT30;63523;51.880;12.630;2024-02-16T11:25:17;16.63;62.73
74968;SHT30;63523;51.880;12.630;2024-02-16T11:27:42;16.57;63.60
74968;SHT30;63523;51.880;12.630;2024-02-16T11:30:10;16.49;64.29
74968;SHT30;63523;51.880;12.630;2024-02-16T11:32:36;16.49;65.43
74968;SHT30;63523;51.880;12.630;2024-02-16T11:35:05;16.49;63.20
74968;SHT30;63523;51.880;12.630;2024-02-16T11:37:31;16.63;63.09
74968;SHT30;63523;51.880;12.630;2024-02-16T11:39:57;16.72;62.59
74968;SHT30;63523;51.880;12.630;2024-02-16T11:42:22;16.66;62.30
74968;SHT30;63523;51.880;12.630;2024-02-16T11:44:51;16.55;62.55
74968;SHT30;63523;51.880;12.630;2024-02-16T11:47:24;16.69;61.13
74968;SHT30;63523;51.880;12.630;2024-02-16T11:50:02;16.56;61.83
74968;SHT30;63523;51.880;12.630;2024-02-16T11:52:28;16.39;62.82
74968;SHT30;63523;51.880;12.630;2024-02-16T11:54:54;16.33;62.65
74968;SHT30;63523;51.880;12.630;2024-02-16T11:57:19;16.45;61.86
74968;SHT30;63523;51.880;12.630;2024-02-16T11:59:44;16.44;62.86
74968;SHT30;63523;51.880;12.630;2024-02-16T12:02:17;16.30;64.05
74968;SHT30;63523;51.880;12.630;2024-02-16T12:04:44;16.46;62.21
74968;SHT30;63523;51.880;12.630;2024-02-16T12:07:12;16.57;62.25
74968;SHT30;63523;51.880;12.630;2024-02-16T12:09:39;16.39;62.55
74968;SHT30;63523;51.880;12.630;2024-02-16T12:12:05;16.19;62.87
74968;SHT30;63523;51.880;12.630;2024-02-16T12:14:31;16.07;63.91
74968;SHT30;63523;51.880;12.630;2024-02-16T12:16:57;16.18;63.85
74968;SHT30;63523;51.880;12.630;2024-02-16T12:19:23;16.28;64.13
74968;SHT30;63523;51.880;12.630;2024-02-16T12:21:52;16.17;63.50
74968;SHT30;63523;51.880;12.630;2024-02-16T12:24:19;16.21;63.72
74968;SHT30;63523;51.880;12.630;2024-02-16T12:26:45;16.14;65.15
74968;SHT30;63523;51.880;12.630;2024-02-16T12:29:11;16.15;64.41
74968;SHT30;63523;51.880;12.630;2024-02-16T12:31:39;16.24;63.41
74968;SHT30;63523;51.880;12.630;2024-02-16T12:34:06;16.22;64.17
74968;SHT30;63523;51.880;12.630;2024-02-16T12:36:33;16.28;63.90
74968;SHT30;63523;51.880;12.630;2024-02-16T12:38:59;16.12;64.50
74968;SHT30;63523;51.880;12.630;2024-02-16T12:41:27;16.22;64.96
74968;SHT30;63523;51.880;12.630;2024-02-16T12:43:53;16.28;64.17
74968;SHT30;63523;51.880;12.630;2024-02-16T12:46:19;16.38;63.33
74968;SHT30;63523;51.880;12.630;2024-02-16T12:48:44;16.32;63.89
74968;SHT30;63523;51.880;12.630;2024-02-16T12:51:09;16.32;65.13
74968;SHT30;63523;51.880;12.630;2024-02-16T12:53:36;16.39;63.21
74968;SHT30;63523;51.880;12.630;2024-02-16T12:56:06;16.39;64.56
74968;SHT30;63523;51.880;12.630;2024-02-16T12:58:32;16.29;64.45
74968;SHT30;63523;51.880;12.630;2024-02-16T13:00:58;16.55;63.48
74968;SHT30;63523;51.880;12.630;2024-02-16T13:03:23;16.49;63.38
74968;SHT30;63523;51.880;12.630;2024-02-16T13:05:48;16.45;63.21
74968;SHT30;63523;51.880;12.630;2024-02-16T13:08:13;16.44;62.67
74968;SHT30;63523;51.880;12.630;2024-02-16T13:10:38;16.59;62.92
74968;SHT30;63523;51.880;12.630;2024-02-16T13:13:04;16.56;63.78
74968;SHT30;63523;51.880;12.630;2024-02-16T13:15:29;16.65;62.56
74968;SHT30;63523;51.880;12.630;2024-02-16T13:17:54;16.56;63.37
74968;SHT30;63523;51.880;12.630;2024-02-16T13:20:20;16.53;63.58
74968;SHT30;63523;51.880;12.630;2024-02-16T13:22:45;16.52;64.16
74968;SHT30;63523;51.880;12.630;2024-02-16T13:25:10;16.39;64.36
74968;SHT30;63523;51.880;12.630;2024-02-16T13:27:35;16.24;64.70
74968;SHT30;63523;51.880;12.630;2024-02-16T13:30:00;16.29;63.74
74968;SHT30;63523;51.880;12.630;2024-02-16T13:32:26;16.22;64.09
74968;SHT30;63523;51.880;12.630;2024-02-16T13:34:52;16.05;64.81
74968;SHT30;63523;51.880;12.630;2024-02-16T13:37:17;16.11;64.37
74968;SHT30;63523;51.880;12.630;2024-02-16T13:39:42;16.11;64.76
74968;SHT30;63523;51.880;12.630;2024-02-16T13:42:08;16.12;64.88
74968;SHT30;63523;51.880;12.630;2024-02-16T13:44:33;16.11;64.83
74968;SHT30;63523;51.880;12.630;2024-02-16T13:47:00;16.15;64.24
74968;SHT30;63523;51.880;12.630;2024-02-16T13:49:25;16.19;65.41
74968;SHT30;63523;51.880;12.630;2024-02-16T13:51:50;16.26;63.95
74968;SHT30;63523;51.880;12.630;2024-02-16T13:54:16;16.44;64.05
74968;SHT30;63523;51.880;12.630;2024-02-16T13:56:42;16.45;63.32
74968;SHT30;63523;51.880;12.630;2024-02-16T13:59:08;16.52;63.61
74968;SHT30;63523;51.880;12.630;2024-02-16T14:01:33;16.60;64.27
74968;SHT30;63523;51.880;12.630;2024-02-16T14:04:00;16.70;64.57
74968;SHT30;63523;51.880;12.630;2024-02-16T14:06:25;16.72;63.49
74968;SHT30;63523;51.880;12.630;2024-02-16T14:08:50;16.67;64.23
74968;SHT30;63523;51.880;12.630;2024-02-16T14:11:18;16.80;62.78
74968;SHT30;63523;51.880;12.630;2024-02-16T14:13:43;16.97;63.04
74968;SHT30;63523;51.880;12.630;2024-02-16T14:16:09;17.11;62.16
74968;SHT30;63523;51.880;12.630;2024-02-16T14:18:35;17.03;62.44
74968;SHT30;63523;51.880;12.630;2024-02-16T14:21:01;17.19;61.48
74968;SHT30;63523;51.880;12.630;2024-02-16T14:23:27;17.24;61.79
74968;SHT30;63523;51.880;12.630;2024-02-16T14:25:52;17.04;62.23
74968;SHT30;63523;51.880;12.630;2024-02-16T14:28:17;16.93;62.09
74968;SHT30;63523;51.880;12.630;2024-02-16T14:30:42;16.81;64.07
74968;SHT30;63523;51.880;12.630;2024-02-16T14:33:08;16.79;64.51
74968;SHT30;63523;51.880;12.630;2024-02-16T14:35:33;16.70;65.03
74968;SHT30;63523;51.880;12.630;2024-02-16T14:38:01;16.70;65.09
74968;SHT30;63523;51.880;12.630;2024-02-16T14:40:27;16.67;64.64
74968;SHT30;63523;51.880;12.630;2024-02-16T14:42:52;16.74;63.76
74968;SHT30;63523;51.880;12.630;2024-02-16T14:45:17;16.67;64.78
74968;SHT30;63523;51.880;12.630;2024-02-16T14:47:47;16.60;65.23
74968;SHT30;63523;51.880;12.630;2024-02-16T14:50:12;16.62;65.26
74968;SHT30;63523;51.880;12.630;2024-02-16T14:52:38;16.55;65.23
74968;SHT30;63523;51.880;12.630;2024-02-16T14:55:04;16.44;66.08
74968;SHT30;63523;51.880;12.630;2024-02-16T14:57:30;16.39;66.77
74968;SHT30;63523;51.880;12.630;2024-02-16T14:59:55;16.38;66.69
74968;SHT30;63523;51.880;12.630;2024-02-16T15:02:22;16.36;66.22
74968;SHT30;63523;51.880;12.630;2024-02-16T15:04:49;16.44;65.18
74968;SHT30;63523;51.880;12.630;2024-02-16T15:07:14;16.41;66.23
74968;SHT30;63523;51.880;12.630;2024-02-16T15:09:39;16.29;66.99
74968;SHT30;63523;51.880;12.630;2024-02-16T15:12:05;16.30;67.22
74968;SHT30;63523;51.880;12.630;2024-02-16T15:14:32;16.26;66.86